Terminal Aerodrome Forecast
Issued by NWS

Home | Current Version | Previous Version | Text Only | Print | Product List | Glossary Off
Versions: 1 2 3 4 5 6 7 8 9 10 11 12 13 14 15 16 17 18 19 20 21 22 23 24 25 26 27

000
FTUS43 KGRB 271700
TAFRHI
TAF
KRHI 271720Z 2718/2818 22010KT P6SM FEW050 SCT250
     FM280000 17003KT P6SM SCT250
     FM280800 00000KT 6SM BR FEW003 BKN250
      TEMPO 2809/2812 1/2SM FG VV003
     FM281400 23004KT P6SM SCT050 BKN250=

USA.gov is the U.S. government's official web portal to all federal, state and local government web resources and services.